createdAt,value
2019-03-08T00:00:35.038Z,64.40
2019-03-08T00:03:04.002Z,66.00
2019-03-08T00:05:34.628Z,66.60
2019-03-08T00:08:03.463Z,69.10
2019-03-08T00:10:32.322Z,68.90
2019-03-08T00:13:01.195Z,68.40
2019-03-08T00:15:30.089Z,66.80
2019-03-08T00:17:58.929Z,66.00
2019-03-08T00:20:27.804Z,66.20
2019-03-08T00:22:56.707Z,66.30
2019-03-08T00:25:25.625Z,65.60
2019-03-08T00:27:54.454Z,65.60
2019-03-08T00:30:23.345Z,63.30
2019-03-08T00:32:52.203Z,62.70
2019-03-08T00:35:20.996Z,63.10
2019-03-08T00:37:49.870Z,63.40
2019-03-08T00:40:18.727Z,63.80
2019-03-08T00:42:47.551Z,64.60
2019-03-08T00:45:17.817Z,66.50
2019-03-08T00:47:46.676Z,66.90
2019-03-08T00:50:15.462Z,66.40
2019-03-08T00:52:44.338Z,63.70
2019-03-08T00:55:14.434Z,65.60
2019-03-08T00:57:43.269Z,67.00
2019-03-08T01:00:19.277Z,67.50
2019-03-08T01:02:48.313Z,66.40
2019-03-08T01:05:17.825Z,67.90
2019-03-08T01:07:46.852Z,68.80
2019-03-08T01:10:21.422Z,64.50
2019-03-08T01:12:50.307Z,60.40
2019-03-08T01:15:19.360Z,59.10
2019-03-08T01:17:48.276Z,59.40
2019-03-08T01:20:18.707Z,59.30
2019-03-08T01:22:47.550Z,58.20
2019-03-08T01:25:16.872Z,57.70
2019-03-08T01:27:56.821Z,57.90
2019-03-08T01:30:25.667Z,58.70
2019-03-08T01:32:54.572Z,58.70
2019-03-08T01:35:23.462Z,57.90
2019-03-08T01:37:55.497Z,58.20
2019-03-08T01:40:24.369Z,58.60
2019-03-08T01:42:53.270Z,59.30
2019-03-08T01:45:22.083Z,59.40
2019-03-08T01:47:50.934Z,59.10
2019-03-08T01:50:19.900Z,60.60
2019-03-08T01:52:48.755Z,60.90
2019-03-08T01:55:17.681Z,62.40
2019-03-08T01:57:46.513Z,63.70
2019-03-08T02:00:18.185Z,64.40
2019-03-08T02:02:47.102Z,64.90
2019-03-08T02:05:16.890Z,65.90
2019-03-08T02:07:45.872Z,65.70
2019-03-08T02:10:17.969Z,66.10
2019-03-08T02:12:46.824Z,68.60
2019-03-08T02:15:17.952Z,69.70
2019-03-08T02:17:46.875Z,66.40
2019-03-08T02:20:18.242Z,66.60
2019-03-08T02:22:47.127Z,67.80
2019-03-08T02:25:15.981Z,66.80
2019-03-08T02:27:44.933Z,66.00
2019-03-08T02:30:16.082Z,65.90
2019-03-08T02:32:45.358Z,66.30
2019-03-08T02:35:16.112Z,67.00
2019-03-08T02:37:45.004Z,67.10
2019-03-08T02:40:29.129Z,68.80
2019-03-08T02:42:58.549Z,69.80
2019-03-08T02:45:27.459Z,70.20
2019-03-08T02:47:56.268Z,71.50
2019-03-08T02:50:25.156Z,72.50
2019-03-08T02:52:54.087Z,71.80
2019-03-08T02:55:22.950Z,71.50
2019-03-08T02:57:52.217Z,69.20
2019-03-08T03:00:21.273Z,67.70
2019-03-08T03:02:50.169Z,67.60
2019-03-08T03:05:19.155Z,65.20
2019-03-08T03:07:47.971Z,63.60
2019-03-08T03:10:16.955Z,63.20
2019-03-08T03:12:45.769Z,61.20
2019-03-08T03:15:15.471Z,63.20
2019-03-08T03:17:44.347Z,63.00
2019-03-08T03:20:14.917Z,63.50
2019-03-08T03:22:43.792Z,65.00
2019-03-08T03:25:16.381Z,65.30
2019-03-08T03:27:45.265Z,62.40
2019-03-08T03:30:16.655Z,63.50
2019-03-08T03:32:45.502Z,59.10
2019-03-08T03:35:14.367Z,59.50
2019-03-08T03:37:43.196Z,59.90
2019-03-08T03:40:16.757Z,60.40
2019-03-08T03:42:45.808Z,58.60
2019-03-08T03:45:19.408Z,58.90
2019-03-08T03:47:48.394Z,59.60
2019-03-08T03:50:18.559Z,57.70
2019-03-08T03:52:47.874Z,57.80
2019-03-08T03:55:17.849Z,56.80
2019-03-08T03:57:46.751Z,57.20
2019-03-08T04:00:21.230Z,55.30
2019-03-08T04:02:50.071Z,57.00
2019-03-08T04:05:18.925Z,54.90
2019-03-08T04:07:47.842Z,54.40
2019-03-08T04:10:17.410Z,55.20
2019-03-08T04:12:46.248Z,54.80
2019-03-08T04:15:19.950Z,55.50
2019-03-08T04:17:48.994Z,55.50
2019-03-08T04:20:18.765Z,55.80
2019-03-08T04:22:47.559Z,55.40
2019-03-08T04:25:16.608Z,55.50
2019-03-08T04:27:45.597Z,55.60
2019-03-08T04:30:18.375Z,55.00
2019-03-08T04:32:47.270Z,54.70
2019-03-08T04:35:16.169Z,56.10
2019-03-08T04:37:45.002Z,55.60
2019-03-08T04:40:14.705Z,55.40
2019-03-08T04:42:43.595Z,55.40
2019-03-08T04:45:13.985Z,55.90
2019-03-08T04:47:42.873Z,56.50
2019-03-08T04:50:12.943Z,56.70
2019-03-08T04:52:41.874Z,56.30
2019-03-08T04:55:16.885Z,56.70
2019-03-08T04:57:46.129Z,57.00
2019-03-08T05:00:17.145Z,57.20
2019-03-08T05:02:46.015Z,57.40
2019-03-08T05:05:14.944Z,56.50
2019-03-08T05:07:43.808Z,57.20
2019-03-08T05:10:17.957Z,57.20
2019-03-08T05:12:46.806Z,57.20
2019-03-08T05:15:15.929Z,57.10
2019-03-08T05:17:44.841Z,57.10
2019-03-08T05:20:13.949Z,58.00
2019-03-08T05:22:42.779Z,59.80
2019-03-08T05:25:15.773Z,60.30
2019-03-08T05:27:53.079Z,60.50
2019-03-08T05:30:21.950Z,61.30
2019-03-08T05:32:50.793Z,62.50
2019-03-08T05:35:19.623Z,60.50
2019-03-08T05:37:48.905Z,60.50
2019-03-08T05:40:17.798Z,60.80
2019-03-08T05:42:46.668Z,61.80
2019-03-08T05:45:16.170Z,63.30
2019-03-08T05:47:45.004Z,63.80
2019-03-08T05:50:13.888Z,65.80
2019-03-08T05:52:43.058Z,67.10
2019-03-08T05:55:12.682Z,67.10
2019-03-08T05:57:41.510Z,67.20
2019-03-08T06:00:31.268Z,68.70
2019-03-08T06:02:52.250Z,68.20
2019-03-08T06:05:21.499Z,70.00
2019-03-08T06:07:50.371Z,70.80
2019-03-08T06:10:30.400Z,69.70
2019-03-08T06:13:00.090Z,71.00
2019-03-08T06:15:29.005Z,71.40
2019-03-08T06:17:58.364Z,71.70
2019-03-08T06:20:27.239Z,72.50
2019-03-08T06:22:56.113Z,72.10
2019-03-08T06:25:24.949Z,72.40
2019-03-08T06:27:54.435Z,71.50
2019-03-08T06:30:23.259Z,69.00
2019-03-08T06:32:52.397Z,68.40
2019-03-08T06:35:21.266Z,69.20
2019-03-08T06:37:50.069Z,69.90
2019-03-08T06:40:18.945Z,69.50
2019-03-08T06:42:47.788Z,68.30
2019-03-08T06:45:17.888Z,68.50
2019-03-08T06:47:47.057Z,67.50
2019-03-08T06:50:16.499Z,69.70
2019-03-08T06:52:45.349Z,69.90
2019-03-08T06:55:16.427Z,70.40
2019-03-08T06:57:45.348Z,70.90
2019-03-08T07:00:20.166Z,72.20
2019-03-08T07:02:49.021Z,70.80
2019-03-08T07:05:17.882Z,72.40
2019-03-08T07:07:46.726Z,70.40
2019-03-08T07:10:15.650Z,71.10
2019-03-08T07:12:44.469Z,70.10
2019-03-08T07:15:13.482Z,68.40
2019-03-08T07:17:42.348Z,67.70
2019-03-08T07:20:15.650Z,67.30
2019-03-08T07:22:46.080Z,65.40
2019-03-08T07:25:34.617Z,65.50
2019-03-08T07:28:14.022Z,66.40
2019-03-08T07:30:47.422Z,66.40
2019-03-08T07:33:34.098Z,65.90
2019-03-08T07:36:21.114Z,65.90
2019-03-08T07:39:07.451Z,64.90
2019-03-08T07:41:54.339Z,62.70
2019-03-08T07:44:34.024Z,63.50
2019-03-08T07:47:16.526Z,63.30
2019-03-08T07:49:59.051Z,62.50
2019-03-08T07:52:29.481Z,62.80
2019-03-08T07:55:02.866Z,63.20
2019-03-08T07:57:33.265Z,63.60
2019-03-08T08:00:03.721Z,63.30
2019-03-08T08:02:34.147Z,63.30
2019-03-08T08:05:04.612Z,63.20
2019-03-08T08:07:35.063Z,63.40
2019-03-08T08:10:10.149Z,64.60
2019-03-08T08:12:43.532Z,62.50
2019-03-08T08:15:16.745Z,62.70
2019-03-08T08:17:47.170Z,63.40
2019-03-08T08:20:17.598Z,62.80
2019-03-08T08:22:48.051Z,64.10
2019-03-08T08:25:18.418Z,64.20
2019-03-08T08:28:04.168Z,61.60
2019-03-08T08:30:52.749Z,60.40
2019-03-08T08:33:39.487Z,62.10
2019-03-08T08:36:09.938Z,60.80
2019-03-08T08:38:57.027Z,59.90
2019-03-08T08:41:33.632Z,60.00
2019-03-08T08:44:20.547Z,59.80
2019-03-08T08:47:03.020Z,59.20
2019-03-08T08:49:33.437Z,60.00
2019-03-08T08:52:12.993Z,60.80
2019-03-08T08:54:49.866Z,61.00
2019-03-08T08:57:23.480Z,61.00
2019-03-08T09:00:12.183Z,60.20
2019-03-08T09:02:48.736Z,60.50
2019-03-08T09:05:19.150Z,61.80
2019-03-08T09:07:58.319Z,59.40
2019-03-08T09:10:40.725Z,59.40
2019-03-08T09:13:11.170Z,59.40
2019-03-08T09:15:41.581Z,59.10
2019-03-08T09:18:17.842Z,58.40
2019-03-08T09:20:57.140Z,59.10
2019-03-08T09:23:27.574Z,57.30
2019-03-08T09:26:16.341Z,57.40
2019-03-08T09:29:04.732Z,56.60
2019-03-08T09:31:40.647Z,58.10
2019-03-08T09:34:11.046Z,58.80
2019-03-08T09:36:44.511Z,54.10
2019-03-08T09:39:15.324Z,53.90
2019-03-08T09:41:48.757Z,54.50
2019-03-08T09:44:22.227Z,54.80
2019-03-08T09:46:52.689Z,52.70
2019-03-08T09:49:23.133Z,53.30
2019-03-08T09:51:54.297Z,54.00
2019-03-08T09:54:27.774Z,53.50
2019-03-08T09:57:13.642Z,53.00
2019-03-08T09:59:44.015Z,52.60
2019-03-08T10:02:17.164Z,51.10
2019-03-08T10:05:02.924Z,51.60
2019-03-08T10:07:33.354Z,52.00
2019-03-08T10:10:06.805Z,51.60
2019-03-08T10:12:52.270Z,52.30
2019-03-08T10:15:31.717Z,51.10
2019-03-08T10:18:18.737Z,50.80
2019-03-08T10:20:54.919Z,50.80
2019-03-08T10:23:31.083Z,50.40
2019-03-08T10:26:01.478Z,50.40
2019-03-08T10:28:43.724Z,49.40
2019-03-08T10:31:26.497Z,49.30
2019-03-08T10:34:13.630Z,49.70
2019-03-08T10:36:53.360Z,48.90
2019-03-08T10:39:35.917Z,48.50
2019-03-08T10:42:22.960Z,48.40
2019-03-08T10:44:56.537Z,48.60
2019-03-08T10:47:32.965Z,48.60
2019-03-08T10:50:03.363Z,49.60
2019-03-08T10:52:46.139Z,46.90
2019-03-08T10:55:28.769Z,46.30
2019-03-08T10:58:15.349Z,46.50
2019-03-08T11:00:45.801Z,47.00
2019-03-08T11:03:16.302Z,46.50
2019-03-08T11:05:46.746Z,45.90
2019-03-08T11:08:17.199Z,47.00
2019-03-08T11:10:48.481Z,45.80
2019-03-08T11:13:19.184Z,45.50
2019-03-08T11:15:55.652Z,46.00
2019-03-08T11:18:26.066Z,45.80
2019-03-08T11:21:05.735Z,45.60
2019-03-08T11:23:50.893Z,45.70
2019-03-08T11:26:30.398Z,45.90
2019-03-08T11:29:00.978Z,47.10
2019-03-08T11:31:43.539Z,46.70
2019-03-08T11:34:13.981Z,46.70
2019-03-08T11:36:44.482Z,46.80
2019-03-08T11:39:19.826Z,46.10
2019-03-08T11:41:52.978Z,45.70
2019-03-08T11:44:26.466Z,46.70
2019-03-08T11:46:59.534Z,45.90
2019-03-08T11:49:30.216Z,45.70
2019-03-08T11:52:03.566Z,45.70
2019-03-08T11:54:40.555Z,44.70
2019-03-08T11:57:15.145Z,44.20
2019-03-08T12:00:02.069Z,45.00
2019-03-08T12:02:50.795Z,45.50
2019-03-08T12:05:23.813Z,44.20
2019-03-08T12:07:54.268Z,45.00
2019-03-08T12:10:41.217Z,44.60
2019-03-08T12:13:14.712Z,44.40
2019-03-08T12:15:51.149Z,44.70
2019-03-08T12:18:21.548Z,45.80
2019-03-08T12:20:52.018Z,45.10
2019-03-08T12:23:24.283Z,45.00
2019-03-08T12:26:00.686Z,44.90
2019-03-08T12:28:31.646Z,44.80
2019-03-08T12:31:04.855Z,44.40
2019-03-08T12:33:44.480Z,44.80
2019-03-08T12:36:24.047Z,43.70
2019-03-08T12:39:00.747Z,44.30
2019-03-08T12:41:34.481Z,43.60
2019-03-08T12:44:10.979Z,44.10
2019-03-08T12:46:41.438Z,44.40
2019-03-08T12:49:24.140Z,44.20
2019-03-08T12:51:57.313Z,45.10
2019-03-08T12:54:33.550Z,43.80
2019-03-08T12:57:20.523Z,44.00
2019-03-08T12:59:59.733Z,43.70
2019-03-08T13:02:30.399Z,43.70
2019-03-08T13:05:03.611Z,43.80
2019-03-08T13:07:43.468Z,44.50
2019-03-08T13:10:16.609Z,43.90
2019-03-08T13:12:45.743Z,43.40
2019-03-08T13:15:16.025Z,43.70
2019-03-08T13:17:44.934Z,43.70
2019-03-08T13:20:16.752Z,44.10
2019-03-08T13:22:45.636Z,45.10
2019-03-08T13:25:14.930Z,44.80
2019-03-08T13:27:43.805Z,44.50
2019-03-08T13:30:18.118Z,44.10
2019-03-08T13:32:47.885Z,44.60
2019-03-08T13:35:17.000Z,44.50
2019-03-08T13:37:45.824Z,45.30
2019-03-08T13:40:16.869Z,45.50
2019-03-08T13:42:45.694Z,42.90
2019-03-08T13:45:17.118Z,42.60
2019-03-08T13:47:45.937Z,42.60
2019-03-08T13:50:15.705Z,43.00
2019-03-08T13:52:44.794Z,42.80
2019-03-08T13:55:19.776Z,42.60
2019-03-08T13:57:48.686Z,43.50
2019-03-08T14:00:18.966Z,42.80
2019-03-08T14:02:47.839Z,42.70
2019-03-08T14:05:16.772Z,43.30
2019-03-08T14:07:45.606Z,43.40
2019-03-08T14:10:21.624Z,44.70
2019-03-08T14:12:50.535Z,44.40
2019-03-08T14:15:19.417Z,45.60
2019-03-08T14:17:48.218Z,45.50
2019-03-08T14:20:25.159Z,46.30
2019-03-08T14:22:53.998Z,46.40
2019-03-08T14:25:22.866Z,46.20
2019-03-08T14:27:51.710Z,46.50
2019-03-08T14:30:37.506Z,47.20
2019-03-08T14:33:06.467Z,46.80
2019-03-08T14:35:35.383Z,45.40
2019-03-08T14:38:04.172Z,45.60
2019-03-08T14:40:34.582Z,45.90
2019-03-08T14:43:13.084Z,45.60
2019-03-08T14:45:44.513Z,45.40
2019-03-08T14:48:13.745Z,45.80
2019-03-08T14:50:42.699Z,46.30
2019-03-08T14:53:11.485Z,46.90
2019-03-08T14:55:40.352Z,46.90
2019-03-08T14:58:09.154Z,47.30
2019-03-08T15:00:38.003Z,47.10
2019-03-08T15:03:06.823Z,47.10
2019-03-08T15:05:35.686Z,48.00
2019-03-08T15:08:04.608Z,47.80
2019-03-08T15:10:39.407Z,47.70
2019-03-08T15:13:04.075Z,48.90
2019-03-08T15:15:32.953Z,47.80
2019-03-08T15:18:01.814Z,48.10
2019-03-08T15:20:31.122Z,48.50
2019-03-08T15:22:59.946Z,48.00
2019-03-08T15:25:31.225Z,47.80
2019-03-08T15:27:59.304Z,47.00
2019-03-08T15:30:28.173Z,47.50
2019-03-08T15:32:57.065Z,47.60
2019-03-08T15:35:25.894Z,47.20
2019-03-08T15:37:54.733Z,46.20
2019-03-08T15:40:24.022Z,46.60
2019-03-08T15:42:52.931Z,47.00
2019-03-08T15:45:22.001Z,46.40
2019-03-08T15:47:50.927Z,46.80
2019-03-08T15:50:21.591Z,46.30
2019-03-08T15:52:51.451Z,46.80
2019-03-08T15:55:20.502Z,46.80
2019-03-08T15:57:49.282Z,46.30
2019-03-08T16:00:20.426Z,46.50
2019-03-08T16:02:50.482Z,47.00
2019-03-08T16:05:23.982Z,46.60
2019-03-08T16:07:51.818Z,46.60
2019-03-08T16:10:22.209Z,46.80
2019-03-08T16:12:53.304Z,45.50
2019-03-08T16:15:22.282Z,45.80
2019-03-08T16:17:51.145Z,46.10
2019-03-08T16:20:20.985Z,46.20
2019-03-08T16:22:49.984Z,46.50
2019-03-08T16:25:18.861Z,46.80
2019-03-08T16:27:47.764Z,45.90
2019-03-08T16:30:24.161Z,46.40
2019-03-08T16:33:00.451Z,46.40
2019-03-08T16:35:30.646Z,46.90
2019-03-08T16:38:17.553Z,46.30
2019-03-08T16:40:56.870Z,46.70
2019-03-08T16:43:32.981Z,46.60
2019-03-08T16:46:15.344Z,47.40
2019-03-08T16:48:45.847Z,49.10
2019-03-08T16:51:34.465Z,48.40
2019-03-08T16:54:04.425Z,48.80
2019-03-08T16:56:53.212Z,50.30
2019-03-08T16:59:23.635Z,50.40
2019-03-08T17:01:57.025Z,50.60
2019-03-08T17:04:33.358Z,51.00
2019-03-08T17:07:12.863Z,51.70
2019-03-08T17:09:52.076Z,51.30
2019-03-08T17:12:28.726Z,51.60
2019-03-08T17:15:15.824Z,51.80
2019-03-08T17:18:04.473Z,52.90
2019-03-08T17:20:51.051Z,53.60
2019-03-08T17:23:27.309Z,53.90
2019-03-08T17:26:06.207Z,54.50
2019-03-08T17:28:36.876Z,55.80
2019-03-08T17:31:07.256Z,57.30
2019-03-08T17:33:55.842Z,57.30
2019-03-08T17:36:34.775Z,57.40
2019-03-08T17:39:08.396Z,57.40
2019-03-08T17:41:45.074Z,57.20
2019-03-08T17:44:15.499Z,57.20
2019-03-08T17:46:54.925Z,56.30
2019-03-08T17:49:28.091Z,54.90
2019-03-08T17:52:16.454Z,55.80
2019-03-08T17:54:49.897Z,54.70
2019-03-08T17:57:20.283Z,55.40
2019-03-08T17:59:53.764Z,54.50
2019-03-08T18:02:26.959Z,53.70
2019-03-08T18:05:15.634Z,52.80
2019-03-08T18:07:52.225Z,52.40
2019-03-08T18:10:31.834Z,53.20
2019-03-08T18:13:18.412Z,53.50
2019-03-08T18:16:05.146Z,55.20
2019-03-08T18:18:35.609Z,54.70
2019-03-08T18:21:15.043Z,55.80
2019-03-08T18:23:45.530Z,54.20
2019-03-08T18:26:31.937Z,53.70
2019-03-08T18:29:18.793Z,53.60
2019-03-08T18:31:58.402Z,55.30
2019-03-08T18:34:37.632Z,55.10
2019-03-08T18:37:24.522Z,54.50
2019-03-08T18:39:59.178Z,54.30
2019-03-08T18:42:46.162Z,53.70
2019-03-08T18:45:16.727Z,54.80
2019-03-08T18:48:03.723Z,52.80
2019-03-08T18:50:40.355Z,53.50
2019-03-08T18:53:10.768Z,54.80
2019-03-08T18:55:41.179Z,55.60
2019-03-08T18:58:29.443Z,55.70
2019-03-08T19:01:14.712Z,56.50
2019-03-08T19:03:54.747Z,57.70
2019-03-08T19:06:26.666Z,59.00
2019-03-08T19:09:12.233Z,56.30
2019-03-08T19:11:55.091Z,56.10
2019-03-08T19:14:37.460Z,55.10
2019-03-08T19:17:24.595Z,55.60
2019-03-08T19:19:55.129Z,56.50
2019-03-08T19:22:35.586Z,55.80
2019-03-08T19:25:14.099Z,57.00
2019-03-08T19:27:45.259Z,58.30
2019-03-08T19:30:29.769Z,58.50
2019-03-08T19:33:00.173Z,57.70
2019-03-08T19:35:30.696Z,58.60
2019-03-08T19:38:03.856Z,60.10
2019-03-08T19:40:40.429Z,60.10
2019-03-08T19:43:27.101Z,59.20
2019-03-08T19:46:13.916Z,59.50
2019-03-08T19:48:44.350Z,60.90
2019-03-08T19:51:20.578Z,62.70
2019-03-08T19:54:06.509Z,63.30
2019-03-08T19:56:40.017Z,64.00
2019-03-08T19:59:10.824Z,66.10
2019-03-08T20:01:57.856Z,66.50
2019-03-08T20:04:40.393Z,67.60
2019-03-08T20:07:13.910Z,68.90
2019-03-08T20:10:00.722Z,69.60
2019-03-08T20:12:31.278Z,69.40
2019-03-08T20:15:01.954Z,71.20
2019-03-08T20:17:42.962Z,69.10
2019-03-08T20:20:27.361Z,65.30
2019-03-08T20:23:01.304Z,64.10
2019-03-08T20:25:31.692Z,66.30
2019-03-08T20:28:05.134Z,66.20
2019-03-08T20:30:52.157Z,65.80
2019-03-08T20:33:31.577Z,67.30
2019-03-08T20:36:17.059Z,67.50
2019-03-08T20:38:50.315Z,67.80
2019-03-08T20:41:23.502Z,67.00
2019-03-08T20:43:53.973Z,67.50
2019-03-08T20:46:24.379Z,67.80
2019-03-08T20:48:53.621Z,66.20
2019-03-08T20:51:22.400Z,66.30
2019-03-08T20:53:51.356Z,67.00
2019-03-08T20:56:20.225Z,64.90
2019-03-08T20:58:49.067Z,65.10
2019-03-08T21:01:17.961Z,66.50
2019-03-08T21:03:46.885Z,66.80
2019-03-08T21:06:15.726Z,67.00
2019-03-08T21:08:44.602Z,65.10
2019-03-08T21:11:13.586Z,64.70
2019-03-08T21:13:42.611Z,64.40
2019-03-08T21:16:11.650Z,65.10
2019-03-08T21:18:40.465Z,65.80
2019-03-08T21:21:10.423Z,65.70
2019-03-08T21:23:39.245Z,65.20
2019-03-08T21:26:08.144Z,64.60
2019-03-08T21:28:37.019Z,64.70
2019-03-08T21:31:05.868Z,65.40
2019-03-08T21:33:34.827Z,67.30
2019-03-08T21:36:03.855Z,68.80
2019-03-08T21:38:32.714Z,69.60
2019-03-08T21:41:01.711Z,70.70
2019-03-08T21:43:30.520Z,71.80
2019-03-08T21:45:59.378Z,72.80
2019-03-08T21:48:28.237Z,73.20
2019-03-08T21:50:57.169Z,74.50
2019-03-08T21:53:26.069Z,74.80
2019-03-08T21:55:55.155Z,75.30
2019-03-08T21:58:24.196Z,75.60
2019-03-08T22:00:55.043Z,73.10
2019-03-08T22:03:23.858Z,72.20
2019-03-08T22:05:52.970Z,70.80
2019-03-08T22:08:22.167Z,71.20
2019-03-08T22:10:52.559Z,69.70
2019-03-08T22:13:21.434Z,68.90
2019-03-08T22:15:50.235Z,68.30
2019-03-08T22:18:19.226Z,69.60
2019-03-08T22:20:48.020Z,68.70
2019-03-08T22:23:16.877Z,69.70
2019-03-08T22:25:45.786Z,66.70
2019-03-08T22:28:15.048Z,66.80
2019-03-08T22:30:43.965Z,68.70
2019-03-08T22:33:12.807Z,67.80
2019-03-08T22:35:41.721Z,68.80
2019-03-08T22:38:10.708Z,69.50
2019-03-08T22:40:39.541Z,70.30
2019-03-08T22:43:09.358Z,70.60
2019-03-08T22:45:38.365Z,71.80
2019-03-08T22:48:07.716Z,71.20
2019-03-08T22:50:36.626Z,70.80
2019-03-08T22:53:05.508Z,71.20
2019-03-08T22:55:34.512Z,71.00
2019-03-08T22:58:03.403Z,70.60
2019-03-08T23:00:59.465Z,70.80
2019-03-08T23:03:29.700Z,71.10
2019-03-08T23:05:58.611Z,73.70
2019-03-08T23:08:27.681Z,73.90
2019-03-08T23:10:56.526Z,74.40
2019-03-08T23:13:26.865Z,75.50
2019-03-08T23:15:55.792Z,76.30
2019-03-08T23:18:24.776Z,77.90
2019-03-08T23:20:53.660Z,77.70
2019-03-08T23:23:22.527Z,77.70
2019-03-08T23:25:51.346Z,78.20
2019-03-08T23:28:25.082Z,78.80
2019-03-08T23:30:55.485Z,79.40
2019-03-08T23:33:24.644Z,77.50
2019-03-08T23:35:53.441Z,77.90
2019-03-08T23:38:22.318Z,76.20
2019-03-08T23:40:51.223Z,76.40
2019-03-08T23:43:20.067Z,77.00
2019-03-08T23:45:48.890Z,77.70
2019-03-08T23:48:17.746Z,77.90
2019-03-08T23:50:46.605Z,78.80
2019-03-08T23:53:15.446Z,79.60
2019-03-08T23:55:44.278Z,80.30
2019-03-08T23:58:13.161Z,79.90
